createdAt,value
2023-04-21T00:00:27.240Z,10.73
2023-04-21T00:03:30.386Z,10.98
2023-04-21T00:06:33.189Z,11.18
2023-04-21T00:09:35.425Z,11.25
2023-04-21T00:12:38.359Z,10.05
2023-04-21T00:15:40.788Z,10.95
2023-04-21T00:18:43.393Z,10.27
2023-04-21T00:21:45.852Z,10.90
2023-04-21T00:24:48.011Z,10.68
2023-04-21T00:27:50.070Z,10.73
2023-04-21T00:30:54.403Z,10.82
2023-04-21T00:33:57.166Z,11.27
2023-04-21T00:36:59.316Z,10.38
2023-04-21T00:40:01.511Z,12.18
2023-04-21T00:43:07.499Z,10.98
2023-04-21T00:46:09.540Z,12.15
2023-04-21T00:49:13.328Z,11.52
2023-04-21T00:52:17.807Z,12.10
2023-04-21T00:55:19.840Z,11.40
2023-04-21T00:58:21.992Z,11.63
2023-04-21T01:01:24.423Z,12.90
2023-04-21T01:04:27.093Z,11.60
2023-04-21T01:07:29.234Z,12.00
2023-04-21T01:10:31.622Z,11.65
2023-04-21T01:13:33.804Z,12.10
2023-04-21T01:16:36.928Z,11.85
2023-04-21T01:19:41.965Z,11.18
2023-04-21T01:22:45.147Z,11.05
2023-04-21T01:25:47.293Z,12.02
2023-04-21T01:28:49.633Z,10.68
2023-04-21T01:31:52.015Z,11.57
2023-04-21T01:34:55.881Z,11.13
2023-04-21T01:37:58.056Z,10.13
2023-04-21T01:41:00.099Z,10.00
2023-04-21T01:44:02.317Z,10.82
2023-04-21T01:47:05.014Z,9.63
2023-04-21T01:50:08.142Z,10.75
2023-04-21T01:53:10.378Z,11.00
2023-04-21T01:56:15.040Z,10.98
2023-04-21T01:59:17.435Z,10.35
2023-04-21T02:02:20.011Z,10.27
2023-04-21T02:05:22.097Z,10.05
2023-04-21T02:08:24.165Z,9.95
2023-04-21T02:11:26.422Z,9.65
2023-04-21T02:14:28.596Z,9.98
2023-04-21T02:17:30.940Z,10.90
2023-04-21T02:20:33.052Z,11.07
2023-04-21T02:23:35.296Z,11.68
2023-04-21T02:26:37.333Z,11.15
2023-04-21T02:29:39.390Z,10.82
2023-04-21T02:32:41.778Z,10.95
2023-04-21T02:35:43.810Z,12.13
2023-04-21T02:38:45.981Z,12.50
2023-04-21T02:41:48.293Z,12.23
2023-04-21T02:44:50.464Z,11.60
2023-04-21T02:47:52.525Z,11.23
2023-04-21T02:50:54.830Z,12.43
2023-04-21T02:54:00.214Z,12.13
2023-04-21T02:57:02.296Z,11.35
2023-04-21T03:00:05.099Z,11.85
2023-04-21T03:03:07.903Z,12.00
2023-04-21T03:06:10.398Z,11.77
2023-04-21T03:09:12.706Z,12.25
2023-04-21T03:12:14.793Z,12.05
2023-04-21T03:15:17.787Z,12.20
2023-04-21T03:18:19.830Z,12.07
2023-04-21T03:21:22.363Z,12.20
2023-04-21T03:24:24.536Z,11.63
2023-04-21T03:27:26.523Z,11.40
2023-04-21T03:30:28.728Z,11.48
2023-04-21T03:33:30.786Z,10.90
2023-04-21T03:36:32.859Z,10.90
2023-04-21T03:39:34.964Z,11.10
2023-04-21T03:42:37.495Z,10.60
2023-04-21T03:45:39.702Z,11.50
2023-04-21T03:48:41.860Z,10.60
2023-04-21T03:51:44.115Z,11.43
2023-04-21T03:54:49.246Z,10.80
2023-04-21T03:57:51.277Z,10.95
2023-04-21T04:00:53.324Z,11.98
2023-04-21T04:03:55.557Z,12.38
2023-04-21T04:06:57.724Z,11.60
2023-04-21T04:09:59.866Z,12.65
2023-04-21T04:13:02.162Z,12.63
2023-04-21T04:16:04.394Z,14.05
2023-04-21T04:19:06.533Z,14.25
2023-04-21T04:22:08.702Z,14.13
2023-04-21T04:25:12.957Z,15.23
2023-04-21T04:28:15.683Z,14.60
2023-04-21T04:31:17.904Z,15.30
2023-04-21T04:34:20.364Z,15.23
2023-04-21T04:37:22.583Z,15.75
2023-04-21T04:40:25.065Z,16.90
2023-04-21T04:43:27.234Z,16.83
2023-04-21T04:46:29.288Z,18.23
2023-04-21T04:49:31.440Z,18.52
2023-04-21T04:52:33.710Z,17.77
2023-04-21T04:55:35.803Z,19.50
2023-04-21T04:58:38.456Z,22.13
2023-04-21T05:01:42.069Z,27.65
2023-04-21T05:04:44.251Z,27.33
2023-04-21T05:07:46.485Z,30.08
2023-04-21T05:10:48.886Z,30.85
2023-04-21T05:13:51.555Z,25.40
2023-04-21T05:16:53.678Z,24.10
2023-04-21T05:19:55.781Z,24.58
2023-04-21T05:22:57.877Z,24.67
2023-04-21T05:26:02.649Z,27.08
2023-04-21T05:29:06.192Z,26.98
2023-04-21T05:32:09.223Z,28.00
2023-04-21T05:35:11.435Z,29.20
2023-04-21T05:38:13.871Z,30.50
2023-04-21T05:41:16.187Z,29.45
2023-04-21T05:44:18.759Z,27.50
2023-04-21T05:47:21.093Z,28.65
2023-04-21T05:50:23.832Z,27.85
2023-04-21T05:53:26.073Z,27.60
2023-04-21T05:56:28.161Z,25.58
2023-04-21T05:59:30.435Z,21.27
2023-04-21T06:02:32.584Z,17.33
2023-04-21T06:05:35.172Z,17.33
2023-04-21T06:08:37.333Z,17.40
2023-04-21T06:11:39.462Z,17.30
2023-04-21T06:14:41.553Z,14.75
2023-04-21T06:17:43.613Z,15.13
2023-04-21T06:20:55.378Z,14.77
2023-04-21T06:23:57.678Z,12.43
2023-04-21T06:26:59.650Z,10.00
2023-04-21T06:30:01.824Z,9.68
2023-04-21T06:33:04.710Z,48.95
2023-04-21T06:36:07.140Z,11.15
2023-04-21T06:39:09.200Z,10.50
2023-04-21T06:42:11.757Z,22.38
2023-04-21T06:45:13.951Z,15.75
2023-04-21T06:48:16.164Z,8.50
2023-04-21T06:51:18.228Z,6.80
2023-04-21T06:54:20.305Z,4.60
2023-04-21T06:57:22.303Z,4.75
2023-04-21T07:00:24.511Z,4.85
2023-04-21T07:03:26.753Z,5.22
2023-04-21T07:06:28.983Z,5.07
2023-04-21T07:09:33.875Z,4.68
2023-04-21T07:12:36.150Z,4.38
2023-04-21T07:15:38.408Z,4.65
2023-04-21T07:18:41.876Z,4.75
2023-04-21T07:21:43.966Z,4.63
2023-04-21T07:24:45.961Z,4.85
2023-04-21T07:27:48.122Z,4.43
2023-04-21T07:30:51.300Z,4.40
2023-04-21T07:33:53.373Z,4.38
2023-04-21T07:36:56.250Z,4.78
2023-04-21T07:39:58.356Z,4.00
2023-04-21T07:43:00.815Z,4.40
2023-04-21T07:46:02.994Z,4.32
2023-04-21T07:49:05.268Z,4.50
2023-04-21T07:52:07.680Z,4.28
2023-04-21T07:55:09.804Z,4.25
2023-04-21T07:58:12.176Z,4.43
2023-04-21T08:01:14.365Z,4.40
2023-04-21T08:04:16.864Z,4.30
2023-04-21T08:07:19.053Z,4.65
2023-04-21T08:10:21.180Z,4.57
2023-04-21T08:13:25.354Z,4.22
2023-04-21T08:16:27.476Z,4.55
2023-04-21T08:19:29.629Z,4.57
2023-04-21T08:22:31.890Z,4.45
2023-04-21T08:25:34.048Z,5.00
2023-04-21T08:28:36.196Z,4.38
2023-04-21T08:31:38.626Z,4.75
2023-04-21T08:34:41.132Z,4.40
2023-04-21T08:37:43.369Z,4.50
2023-04-21T08:40:45.607Z,4.30
2023-04-21T08:43:47.912Z,4.30
2023-04-21T08:46:53.063Z,4.32
2023-04-21T08:49:55.244Z,4.15
2023-04-21T08:52:58.349Z,3.65
2023-04-21T08:56:10.801Z,3.97
2023-04-21T08:59:13.658Z,3.65
2023-04-21T09:02:18.971Z,3.67
2023-04-21T09:05:29.992Z,3.95
2023-04-21T09:08:33.144Z,3.60
2023-04-21T09:11:35.254Z,3.67
2023-04-21T09:14:37.317Z,3.80
2023-04-21T09:17:39.414Z,3.30
2023-04-21T09:20:43.858Z,3.75
2023-04-21T09:23:50.018Z,3.33
2023-04-21T09:26:53.403Z,3.60
2023-04-21T09:29:55.615Z,3.65
2023-04-21T09:32:58.378Z,4.05
2023-04-21T09:36:02.940Z,3.80
2023-04-21T09:42:13.918Z,3.60
2023-04-21T09:45:36.677Z,3.88
2023-04-21T09:48:43.279Z,3.42
2023-04-21T09:52:05.961Z,3.63
2023-04-21T09:55:14.799Z,3.40
2023-04-21T09:58:20.418Z,3.60
2023-04-21T10:01:26.149Z,3.70
2023-04-21T10:04:31.670Z,3.30
2023-04-21T10:07:34.157Z,3.20
2023-04-21T10:10:37.640Z,3.38
2023-04-21T10:13:41.769Z,3.42
2023-04-21T10:16:44.148Z,3.45
2023-04-21T10:19:52.007Z,3.22
2023-04-21T10:22:58.764Z,3.55
2023-04-21T10:26:08.429Z,3.30
2023-04-21T10:29:10.518Z,3.25
2023-04-21T10:32:12.600Z,3.40
2023-04-21T10:35:21.541Z,3.42
2023-04-21T10:41:43.984Z,3.30
2023-04-21T10:44:54.662Z,3.22
2023-04-21T10:47:59.551Z,3.45
2023-04-21T10:51:01.974Z,4.30
2023-04-21T10:54:05.752Z,3.58
2023-04-21T10:57:09.525Z,3.33
2023-04-21T11:00:16.780Z,3.20
2023-04-21T11:03:19.095Z,3.28
2023-04-21T11:06:21.278Z,3.20
2023-04-21T11:09:23.414Z,3.08
2023-04-21T11:12:30.118Z,3.00
2023-04-21T11:15:32.292Z,3.28
2023-04-21T11:18:39.923Z,3.13
2023-04-21T11:21:42.207Z,3.17
2023-04-21T11:24:48.267Z,3.10
2023-04-21T11:27:55.288Z,3.85
2023-04-21T11:30:57.507Z,3.53
2023-04-21T11:34:00.304Z,3.70
2023-04-21T11:37:02.412Z,3.20
2023-04-21T11:40:06.283Z,2.85
2023-04-21T11:43:09.385Z,3.20
2023-04-21T11:46:33.480Z,3.10
2023-04-21T11:49:45.125Z,3.15
2023-04-21T11:52:48.472Z,3.30
2023-04-21T11:55:51.398Z,3.17
2023-04-21T11:58:53.660Z,3.17
2023-04-21T12:01:55.937Z,3.00
2023-04-21T12:05:18.238Z,3.33
2023-04-21T12:08:21.127Z,3.17
2023-04-21T12:11:25.012Z,3.85
2023-04-21T12:14:27.130Z,3.60
2023-04-21T12:17:39.002Z,3.80
2023-04-21T12:20:51.359Z,3.30
2023-04-21T12:23:53.460Z,3.63
2023-04-21T12:26:55.980Z,3.50
2023-04-21T12:29:58.203Z,3.33
2023-04-21T12:33:00.771Z,3.28
2023-04-21T12:36:03.210Z,3.45
2023-04-21T12:39:06.408Z,3.40
2023-04-21T12:42:09.367Z,3.05
2023-04-21T12:45:11.753Z,3.17
2023-04-21T12:48:14.166Z,3.38
2023-04-21T12:51:16.230Z,3.67
2023-04-21T12:54:18.851Z,3.30
2023-04-21T12:57:21.657Z,3.25
2023-04-21T13:00:24.050Z,3.40
2023-04-21T13:03:26.264Z,3.22
2023-04-21T13:06:28.827Z,3.55
2023-04-21T13:09:31.297Z,3.60
2023-04-21T13:12:33.889Z,3.67
2023-04-21T13:15:36.183Z,3.45
2023-04-21T13:18:39.071Z,3.35
2023-04-21T13:21:41.537Z,3.50
2023-04-21T13:24:43.990Z,3.50
2023-04-21T13:27:46.880Z,3.33
2023-04-21T13:30:51.726Z,3.42
2023-04-21T13:33:54.485Z,3.53
2023-04-21T13:36:56.646Z,3.50
2023-04-21T13:39:58.861Z,3.72
2023-04-21T13:43:01.019Z,3.38
2023-04-21T13:46:03.380Z,3.50
2023-04-21T13:49:06.545Z,3.05
2023-04-21T13:52:09.854Z,3.40
2023-04-21T13:55:12.867Z,3.03
2023-04-21T13:58:16.672Z,3.53
2023-04-21T14:01:21.261Z,2.90
2023-04-21T14:04:23.838Z,2.55
2023-04-21T14:07:26.642Z,3.25
2023-04-21T14:10:28.981Z,2.97
2023-04-21T14:13:37.819Z,3.00
2023-04-21T14:16:44.366Z,3.22
2023-04-21T14:19:47.330Z,3.45
2023-04-21T14:22:49.427Z,3.00
2023-04-21T14:25:53.050Z,3.03
2023-04-21T14:28:56.627Z,3.58
2023-04-21T14:31:59.547Z,3.17
2023-04-21T14:35:03.768Z,3.28
2023-04-21T14:38:05.905Z,2.70
2023-04-21T14:41:08.384Z,2.70
2023-04-21T14:44:11.163Z,2.78
2023-04-21T14:47:13.544Z,3.25
2023-04-21T14:50:16.057Z,3.10
2023-04-21T14:53:18.319Z,3.10
2023-04-21T14:56:20.635Z,3.60
2023-04-21T14:59:23.254Z,3.45
2023-04-21T15:02:25.748Z,3.60
2023-04-21T15:05:28.335Z,3.88
2023-04-21T15:08:30.909Z,3.78
2023-04-21T15:11:33.250Z,3.78
2023-04-21T15:14:35.373Z,3.90
2023-04-21T15:17:37.765Z,4.07
2023-04-21T15:20:45.262Z,3.75
2023-04-21T15:23:48.050Z,3.80
2023-04-21T15:26:50.245Z,4.10
2023-04-21T15:29:52.974Z,3.80
2023-04-21T15:32:55.150Z,4.10
2023-04-21T15:35:57.204Z,3.90
2023-04-21T15:38:59.282Z,4.03
2023-04-21T15:42:01.671Z,3.80
2023-04-21T15:45:04.256Z,3.67
2023-04-21T15:48:06.819Z,3.85
2023-04-21T15:51:09.821Z,4.00
2023-04-21T15:54:11.883Z,3.40
2023-04-21T16:00:16.405Z,3.97
2023-04-21T16:03:18.784Z,3.90
2023-04-21T16:06:21.607Z,3.53
2023-04-21T16:09:24.128Z,3.95
2023-04-21T16:12:26.432Z,3.58
2023-04-21T16:15:29.000Z,3.92
2023-04-21T16:18:31.426Z,3.97
2023-04-21T16:21:33.758Z,3.40
2023-04-21T16:24:36.026Z,3.40
2023-04-21T16:27:38.673Z,3.28
2023-04-21T16:30:43.604Z,3.75
2023-04-21T16:33:46.198Z,3.90
2023-04-21T16:36:48.321Z,3.22
2023-04-21T16:39:50.665Z,3.30
2023-04-21T16:42:52.904Z,3.50
2023-04-21T16:45:55.110Z,3.30
2023-04-21T16:48:57.441Z,3.20
2023-04-21T16:51:59.694Z,3.47
2023-04-21T16:55:01.867Z,3.17
2023-04-21T16:58:04.033Z,3.45
2023-04-21T17:01:07.644Z,3.60
2023-04-21T17:04:13.947Z,3.55
2023-04-21T17:07:16.285Z,3.30
2023-04-21T17:10:18.495Z,3.40
2023-04-21T17:13:21.084Z,3.40
2023-04-21T17:16:23.305Z,3.63
2023-04-21T17:19:25.721Z,4.10
2023-04-21T17:22:27.840Z,3.50
2023-04-21T17:25:30.123Z,3.88
2023-04-21T17:28:32.270Z,4.00
2023-04-21T17:31:34.873Z,3.97
2023-04-21T17:34:37.290Z,3.90
2023-04-21T17:37:39.867Z,4.05
2023-04-21T17:40:42.036Z,4.25
2023-04-21T17:43:44.330Z,4.20
2023-04-21T17:46:46.512Z,4.57
2023-04-21T17:49:49.061Z,5.68
2023-04-21T17:52:51.320Z,4.38
2023-04-21T17:55:53.664Z,4.80
2023-04-21T17:58:56.265Z,4.45
2023-04-21T18:01:59.119Z,4.97
2023-04-21T18:05:01.618Z,4.95
2023-04-21T18:08:04.162Z,4.57
2023-04-21T18:11:06.403Z,4.68
2023-04-21T18:14:08.850Z,4.70
2023-04-21T18:17:11.067Z,5.10
2023-04-21T18:20:14.980Z,4.70
2023-04-21T18:23:17.108Z,5.50
2023-04-21T18:26:19.383Z,5.18
2023-04-21T18:29:21.683Z,5.38
2023-04-21T18:32:24.341Z,10.25
2023-04-21T18:35:26.963Z,7.30
2023-04-21T18:38:28.976Z,6.60
2023-04-21T18:41:31.379Z,6.78
2023-04-21T18:44:34.219Z,6.53
2023-04-21T18:47:37.236Z,6.00
2023-04-21T18:50:41.107Z,5.55
2023-04-21T18:53:43.781Z,6.80
2023-04-21T18:56:46.325Z,8.20
2023-04-21T18:59:48.921Z,5.60
2023-04-21T19:02:51.762Z,5.28
2023-04-21T19:05:54.405Z,5.32
2023-04-21T19:08:58.001Z,5.10
2023-04-21T19:12:00.261Z,5.28
2023-04-21T19:15:04.121Z,5.70
2023-04-21T19:18:07.007Z,5.32
2023-04-21T19:21:13.716Z,5.80
2023-04-21T19:24:17.021Z,5.30
2023-04-21T19:27:19.866Z,5.00
2023-04-21T19:30:22.173Z,5.43
2023-04-21T19:33:24.689Z,5.20
2023-04-21T19:36:27.592Z,5.28
2023-04-21T19:39:30.084Z,5.35
2023-04-21T19:42:33.000Z,5.47
2023-04-21T19:45:35.462Z,5.65
2023-04-21T19:48:38.480Z,5.57
2023-04-21T19:51:42.226Z,5.35
2023-04-21T19:54:44.573Z,5.28
2023-04-21T19:57:46.834Z,5.47
2023-04-21T20:00:49.350Z,5.47
2023-04-21T20:03:52.073Z,5.57
2023-04-21T20:06:54.487Z,7.05
2023-04-21T20:09:56.649Z,6.72
2023-04-21T20:12:59.684Z,6.40
2023-04-21T20:16:02.204Z,6.63
2023-04-21T20:19:04.762Z,7.07
2023-04-21T20:22:08.164Z,6.93
2023-04-21T20:25:10.790Z,6.68
2023-04-21T20:28:13.340Z,6.95
2023-04-21T20:31:15.460Z,6.75
2023-04-21T20:34:17.581Z,6.45
2023-04-21T20:37:20.805Z,7.00
2023-04-21T20:40:23.077Z,7.72
2023-04-21T20:43:26.171Z,7.70
2023-04-21T20:46:29.795Z,7.60
2023-04-21T20:49:32.455Z,7.38
2023-04-21T20:52:34.949Z,7.63
2023-04-21T20:55:37.222Z,8.18
2023-04-21T20:58:39.493Z,8.45
2023-04-21T21:01:41.797Z,8.77
2023-04-21T21:04:43.898Z,8.68
2023-04-21T21:07:45.969Z,8.63
2023-04-21T21:10:48.126Z,9.80
2023-04-21T21:13:50.322Z,11.05
2023-04-21T21:16:54.696Z,10.85
2023-04-21T21:19:57.212Z,12.98
2023-04-21T21:22:59.918Z,14.13
2023-04-21T21:26:02.025Z,13.45
2023-04-21T21:29:04.063Z,19.90
2023-04-21T21:32:06.209Z,17.02
2023-04-21T21:35:09.557Z,13.48
2023-04-21T21:38:11.673Z,12.57
2023-04-21T21:41:14.167Z,20.63
2023-04-21T21:44:16.744Z,15.25
2023-04-21T21:47:18.906Z,9.60
2023-04-21T21:50:22.270Z,15.43
2023-04-21T21:53:24.342Z,10.93
2023-04-21T21:56:27.118Z,13.60
2023-04-21T21:59:29.386Z,8.25
2023-04-21T22:02:31.617Z,8.40
2023-04-21T22:05:33.821Z,9.32
2023-04-21T22:08:35.850Z,8.82
2023-04-21T22:11:38.349Z,9.25
2023-04-21T22:14:40.944Z,7.28
2023-04-21T22:17:45.441Z,7.05
2023-04-21T22:20:48.938Z,6.93
2023-04-21T22:23:51.190Z,7.38
2023-04-21T22:26:53.563Z,7.63
2023-04-21T22:29:55.759Z,7.70
2023-04-21T22:32:57.864Z,7.78
2023-04-21T22:36:00.008Z,7.10
2023-04-21T22:39:02.299Z,7.90
2023-04-21T22:42:04.445Z,7.43
2023-04-21T22:45:07.364Z,7.32
2023-04-21T22:48:09.550Z,7.15
2023-04-21T22:51:12.648Z,7.45
2023-04-21T22:54:15.417Z,7.65
2023-04-21T22:57:17.524Z,6.97
2023-04-21T23:00:19.692Z,7.57
2023-04-21T23:03:23.109Z,7.10
2023-04-21T23:06:25.713Z,7.53
2023-04-21T23:09:28.111Z,8.27
2023-04-21T23:12:30.422Z,7.50
2023-04-21T23:15:33.566Z,7.97
2023-04-21T23:18:36.029Z,8.18
2023-04-21T23:21:38.236Z,7.80
2023-04-21T23:24:40.390Z,7.88
2023-04-21T23:27:42.436Z,7.60
2023-04-21T23:30:44.997Z,8.27
2023-04-21T23:33:47.136Z,8.18
2023-04-21T23:36:49.173Z,8.23
2023-04-21T23:39:51.215Z,7.75
2023-04-21T23:42:53.402Z,7.75
2023-04-21T23:45:56.944Z,7.80
2023-04-21T23:48:59.336Z,8.15
2023-04-21T23:52:01.391Z,8.25
2023-04-21T23:55:03.745Z,7.78
2023-04-21T23:58:05.903Z,8.02
